sensor_id;sensor_type;location;lat;lon;timestamp;P1;durP1;ratioP1;P2;durP2;ratioP2
23898;SDS011;20544;50.018;20.010;2023-04-07T00:02:36;48.03;;;37.93;;
23898;SDS011;20544;50.018;20.010;2023-04-07T00:05:55;49.30;;;37.73;;
23898;SDS011;20544;50.018;20.010;2023-04-07T00:09:11;51.10;;;37.70;;
23898;SDS011;20544;50.018;20.010;2023-04-07T00:12:29;47.33;;;36.63;;
23898;SDS011;20544;50.018;20.010;2023-04-07T00:15:45;46.30;;;36.38;;
23898;SDS011;20544;50.018;20.010;2023-04-07T00:19:01;52.08;;;38.48;;
23898;SDS011;20544;50.018;20.010;2023-04-07T00:22:18;49.08;;;36.50;;
23898;SDS011;20544;50.018;20.010;2023-04-07T00:25:34;50.10;;;36.75;;
23898;SDS011;20544;50.018;20.010;2023-04-07T00:28:50;46.18;;;36.70;;
23898;SDS011;20544;50.018;20.010;2023-04-07T00:32:07;46.53;;;37.20;;
23898;SDS011;20544;50.018;20.010;2023-04-07T00:35:23;53.43;;;40.23;;
23898;SDS011;20544;50.018;20.010;2023-04-07T00:38:40;51.70;;;39.08;;
23898;SDS011;20544;50.018;20.010;2023-04-07T00:41:56;53.75;;;39.75;;
23898;SDS011;20544;50.018;20.010;2023-04-07T00:45:13;48.60;;;37.70;;
23898;SDS011;20544;50.018;20.010;2023-04-07T00:48:30;51.23;;;39.03;;
23898;SDS011;20544;50.018;20.010;2023-04-07T00:51:46;47.38;;;37.23;;
23898;SDS011;20544;50.018;20.010;2023-04-07T00:55:03;51.25;;;39.15;;
23898;SDS011;20544;50.018;20.010;2023-04-07T00:58:21;51.68;;;39.43;;
23898;SDS011;20544;50.018;20.010;2023-04-07T01:01:39;52.28;;;39.73;;
23898;SDS011;20544;50.018;20.010;2023-04-07T01:05:02;49.10;;;37.50;;
23898;SDS011;20544;50.018;20.010;2023-04-07T01:08:29;51.13;;;39.45;;
23898;SDS011;20544;50.018;20.010;2023-04-07T01:11:50;51.40;;;38.93;;
23898;SDS011;20544;50.018;20.010;2023-04-07T01:15:11;47.68;;;37.45;;
23898;SDS011;20544;50.018;20.010;2023-04-07T01:18:34;48.23;;;38.15;;
23898;SDS011;20544;50.018;20.010;2023-04-07T01:21:52;51.73;;;38.90;;
23898;SDS011;20544;50.018;20.010;2023-04-07T01:25:21;50.23;;;38.48;;
23898;SDS011;20544;50.018;20.010;2023-04-07T01:32:39;49.38;;;37.50;;
23898;SDS011;20544;50.018;20.010;2023-04-07T01:35:58;45.80;;;35.05;;
23898;SDS011;20544;50.018;20.010;2023-04-07T01:39:16;49.55;;;36.98;;
23898;SDS011;20544;50.018;20.010;2023-04-07T01:42:34;46.58;;;36.08;;
23898;SDS011;20544;50.018;20.010;2023-04-07T01:45:52;50.55;;;39.23;;
23898;SDS011;20544;50.018;20.010;2023-04-07T01:49:11;49.13;;;37.60;;
23898;SDS011;20544;50.018;20.010;2023-04-07T01:52:28;48.83;;;37.18;;
23898;SDS011;20544;50.018;20.010;2023-04-07T01:55:45;45.78;;;35.83;;
23898;SDS011;20544;50.018;20.010;2023-04-07T01:59:01;46.38;;;36.65;;
23898;SDS011;20544;50.018;20.010;2023-04-07T02:02:19;48.23;;;37.63;;
23898;SDS011;20544;50.018;20.010;2023-04-07T02:05:36;50.88;;;38.30;;
23898;SDS011;20544;50.018;20.010;2023-04-07T02:08:54;48.88;;;36.53;;
23898;SDS011;20544;50.018;20.010;2023-04-07T02:12:15;52.48;;;38.85;;
23898;SDS011;20544;50.018;20.010;2023-04-07T02:15:34;52.55;;;39.58;;
23898;SDS011;20544;50.018;20.010;2023-04-07T02:18:54;50.55;;;38.53;;
23898;SDS011;20544;50.018;20.010;2023-04-07T02:22:12;53.88;;;39.35;;
23898;SDS011;20544;50.018;20.010;2023-04-07T02:25:31;47.47;;;36.90;;
23898;SDS011;20544;50.018;20.010;2023-04-07T02:28:48;50.75;;;38.15;;
23898;SDS011;20544;50.018;20.010;2023-04-07T02:32:05;48.63;;;37.25;;
23898;SDS011;20544;50.018;20.010;2023-04-07T02:35:23;49.58;;;38.70;;
23898;SDS011;20544;50.018;20.010;2023-04-07T02:38:40;50.18;;;38.65;;
23898;SDS011;20544;50.018;20.010;2023-04-07T02:41:57;50.45;;;38.38;;
23898;SDS011;20544;50.018;20.010;2023-04-07T02:45:13;49.38;;;36.58;;
23898;SDS011;20544;50.018;20.010;2023-04-07T02:48:30;51.58;;;38.05;;
23898;SDS011;20544;50.018;20.010;2023-04-07T02:51:47;50.73;;;37.58;;
23898;SDS011;20544;50.018;20.010;2023-04-07T02:55:04;53.40;;;38.80;;
23898;SDS011;20544;50.018;20.010;2023-04-07T02:58:24;52.10;;;38.38;;
23898;SDS011;20544;50.018;20.010;2023-04-07T03:01:41;55.80;;;40.60;;
23898;SDS011;20544;50.018;20.010;2023-04-07T03:04:58;52.80;;;39.68;;
23898;SDS011;20544;50.018;20.010;2023-04-07T03:08:15;51.75;;;36.20;;
23898;SDS011;20544;50.018;20.010;2023-04-07T03:11:32;51.70;;;39.00;;
23898;SDS011;20544;50.018;20.010;2023-04-07T03:14:48;54.35;;;39.15;;
23898;SDS011;20544;50.018;20.010;2023-04-07T03:18:05;53.65;;;39.90;;
23898;SDS011;20544;50.018;20.010;2023-04-07T03:21:22;54.05;;;39.15;;
23898;SDS011;20544;50.018;20.010;2023-04-07T03:24:39;49.88;;;37.50;;
23898;SDS011;20544;50.018;20.010;2023-04-07T03:27:56;52.03;;;38.18;;
23898;SDS011;20544;50.018;20.010;2023-04-07T03:31:15;50.10;;;37.85;;
23898;SDS011;20544;50.018;20.010;2023-04-07T03:34:33;50.48;;;38.80;;
23898;SDS011;20544;50.018;20.010;2023-04-07T03:37:50;54.18;;;39.13;;
23898;SDS011;20544;50.018;20.010;2023-04-07T03:41:07;58.25;;;40.63;;
23898;SDS011;20544;50.018;20.010;2023-04-07T03:44:24;51.70;;;37.83;;
23898;SDS011;20544;50.018;20.010;2023-04-07T03:47:41;52.63;;;38.73;;
23898;SDS011;20544;50.018;20.010;2023-04-07T03:51:00;51.08;;;37.50;;
23898;SDS011;20544;50.018;20.010;2023-04-07T03:54:17;50.28;;;38.05;;
23898;SDS011;20544;50.018;20.010;2023-04-07T03:57:34;53.63;;;39.88;;
23898;SDS011;20544;50.018;20.010;2023-04-07T04:00:50;53.53;;;38.60;;
23898;SDS011;20544;50.018;20.010;2023-04-07T04:04:07;53.45;;;38.78;;
23898;SDS011;20544;50.018;20.010;2023-04-07T04:07:25;53.63;;;39.73;;
23898;SDS011;20544;50.018;20.010;2023-04-07T04:10:42;55.10;;;39.70;;
23898;SDS011;20544;50.018;20.010;2023-04-07T04:14:01;56.58;;;39.18;;
23898;SDS011;20544;50.018;20.010;2023-04-07T04:17:18;60.45;;;41.70;;
23898;SDS011;20544;50.018;20.010;2023-04-07T04:20:35;56.58;;;39.10;;
23898;SDS011;20544;50.018;20.010;2023-04-07T04:24:53;55.65;;;39.55;;
23898;SDS011;20544;50.018;20.010;2023-04-07T04:28:09;58.58;;;40.45;;
23898;SDS011;20544;50.018;20.010;2023-04-07T04:31:27;58.05;;;39.53;;
23898;SDS011;20544;50.018;20.010;2023-04-07T04:34:44;57.58;;;40.45;;
23898;SDS011;20544;50.018;20.010;2023-04-07T04:38:02;56.73;;;40.85;;
23898;SDS011;20544;50.018;20.010;2023-04-07T04:41:20;57.68;;;40.08;;
23898;SDS011;20544;50.018;20.010;2023-04-07T04:44:38;57.95;;;39.98;;
23898;SDS011;20544;50.018;20.010;2023-04-07T04:47:55;59.08;;;41.58;;
23898;SDS011;20544;50.018;20.010;2023-04-07T04:51:11;58.33;;;41.03;;
23898;SDS011;20544;50.018;20.010;2023-04-07T04:54:30;55.68;;;38.78;;
23898;SDS011;20544;50.018;20.010;2023-04-07T04:57:47;56.88;;;38.60;;
23898;SDS011;20544;50.018;20.010;2023-04-07T05:01:05;56.90;;;37.75;;
23898;SDS011;20544;50.018;20.010;2023-04-07T05:04:24;54.80;;;37.83;;
23898;SDS011;20544;50.018;20.010;2023-04-07T05:07:42;55.68;;;37.95;;
23898;SDS011;20544;50.018;20.010;2023-04-07T05:10:59;54.63;;;37.08;;
23898;SDS011;20544;50.018;20.010;2023-04-07T05:14:16;54.35;;;37.63;;
23898;SDS011;20544;50.018;20.010;2023-04-07T05:17:34;54.88;;;37.20;;
23898;SDS011;20544;50.018;20.010;2023-04-07T05:24:08;56.58;;;38.25;;
23898;SDS011;20544;50.018;20.010;2023-04-07T05:27:26;53.43;;;36.00;;
23898;SDS011;20544;50.018;20.010;2023-04-07T05:30:44;55.35;;;36.58;;
23898;SDS011;20544;50.018;20.010;2023-04-07T05:34:03;54.50;;;38.35;;
23898;SDS011;20544;50.018;20.010;2023-04-07T05:40:36;54.90;;;36.78;;
23898;SDS011;20544;50.018;20.010;2023-04-07T05:43:55;53.50;;;38.40;;
23898;SDS011;20544;50.018;20.010;2023-04-07T05:47:14;53.65;;;36.13;;
23898;SDS011;20544;50.018;20.010;2023-04-07T05:50:32;48.75;;;34.08;;
23898;SDS011;20544;50.018;20.010;2023-04-07T05:53:50;52.40;;;35.15;;
23898;SDS011;20544;50.018;20.010;2023-04-07T05:57:07;55.15;;;36.75;;
23898;SDS011;20544;50.018;20.010;2023-04-07T06:00:24;49.70;;;34.70;;
23898;SDS011;20544;50.018;20.010;2023-04-07T06:03:43;50.30;;;35.23;;
23898;SDS011;20544;50.018;20.010;2023-04-07T06:07:01;50.25;;;34.53;;
23898;SDS011;20544;50.018;20.010;2023-04-07T06:10:20;48.95;;;34.05;;
23898;SDS011;20544;50.018;20.010;2023-04-07T06:13:38;51.58;;;34.93;;
23898;SDS011;20544;50.018;20.010;2023-04-07T06:16:55;51.33;;;34.80;;
23898;SDS011;20544;50.018;20.010;2023-04-07T06:20:12;48.63;;;33.73;;
23898;SDS011;20544;50.018;20.010;2023-04-07T06:23:29;46.95;;;33.15;;
23898;SDS011;20544;50.018;20.010;2023-04-07T06:26:45;51.58;;;35.55;;
23898;SDS011;20544;50.018;20.010;2023-04-07T06:30:03;51.98;;;34.30;;
23898;SDS011;20544;50.018;20.010;2023-04-07T06:33:22;45.93;;;32.55;;
23898;SDS011;20544;50.018;20.010;2023-04-07T06:36:38;42.93;;;31.23;;
23898;SDS011;20544;50.018;20.010;2023-04-07T06:39:55;44.63;;;31.48;;
23898;SDS011;20544;50.018;20.010;2023-04-07T06:43:12;41.65;;;29.10;;
23898;SDS011;20544;50.018;20.010;2023-04-07T06:46:30;42.60;;;30.28;;
23898;SDS011;20544;50.018;20.010;2023-04-07T06:49:48;43.98;;;30.90;;
23898;SDS011;20544;50.018;20.010;2023-04-07T06:53:04;44.65;;;30.40;;
23898;SDS011;20544;50.018;20.010;2023-04-07T06:56:21;42.30;;;29.93;;
23898;SDS011;20544;50.018;20.010;2023-04-07T06:59:38;45.43;;;29.88;;
23898;SDS011;20544;50.018;20.010;2023-04-07T07:02:55;42.38;;;30.08;;
23898;SDS011;20544;50.018;20.010;2023-04-07T07:06:12;45.58;;;31.78;;
23898;SDS011;20544;50.018;20.010;2023-04-07T07:10:31;45.67;;;29.67;;
23898;SDS011;20544;50.018;20.010;2023-04-07T07:13:47;44.35;;;29.20;;
23898;SDS011;20544;50.018;20.010;2023-04-07T07:17:03;43.23;;;29.93;;
23898;SDS011;20544;50.018;20.010;2023-04-07T07:20:20;42.75;;;28.90;;
23898;SDS011;20544;50.018;20.010;2023-04-07T07:23:36;46.35;;;30.93;;
23898;SDS011;20544;50.018;20.010;2023-04-07T07:26:54;45.80;;;31.50;;
23898;SDS011;20544;50.018;20.010;2023-04-07T07:30:11;45.30;;;31.13;;
23898;SDS011;20544;50.018;20.010;2023-04-07T07:33:28;43.63;;;29.78;;
23898;SDS011;20544;50.018;20.010;2023-04-07T07:40:01;45.85;;;30.88;;
23898;SDS011;20544;50.018;20.010;2023-04-07T07:43:19;44.95;;;28.95;;
23898;SDS011;20544;50.018;20.010;2023-04-07T07:46:37;77.53;;;54.55;;
23898;SDS011;20544;50.018;20.010;2023-04-07T07:49:53;122.45;;;74.78;;
23898;SDS011;20544;50.018;20.010;2023-04-07T07:53:10;56.40;;;36.38;;
23898;SDS011;20544;50.018;20.010;2023-04-07T07:56:27;45.38;;;30.20;;
23898;SDS011;20544;50.018;20.010;2023-04-07T07:59:43;45.53;;;28.83;;
23898;SDS011;20544;50.018;20.010;2023-04-07T08:03:00;44.83;;;28.35;;
23898;SDS011;20544;50.018;20.010;2023-04-07T08:06:16;47.10;;;30.68;;
23898;SDS011;20544;50.018;20.010;2023-04-07T08:09:33;44.33;;;28.13;;
23898;SDS011;20544;50.018;20.010;2023-04-07T08:12:50;41.38;;;28.43;;
23898;SDS011;20544;50.018;20.010;2023-04-07T08:16:07;42.50;;;27.88;;
23898;SDS011;20544;50.018;20.010;2023-04-07T08:19:23;40.75;;;26.65;;
23898;SDS011;20544;50.018;20.010;2023-04-07T08:22:40;39.20;;;26.83;;
23898;SDS011;20544;50.018;20.010;2023-04-07T08:25:58;39.85;;;27.00;;
23898;SDS011;20544;50.018;20.010;2023-04-07T08:29:15;39.10;;;26.60;;
23898;SDS011;20544;50.018;20.010;2023-04-07T08:32:35;39.20;;;26.35;;
23898;SDS011;20544;50.018;20.010;2023-04-07T08:35:54;36.83;;;25.60;;
23898;SDS011;20544;50.018;20.010;2023-04-07T08:42:28;37.40;;;24.15;;
23898;SDS011;20544;50.018;20.010;2023-04-07T08:45:46;37.17;;;25.10;;
23898;SDS011;20544;50.018;20.010;2023-04-07T08:49:03;36.30;;;24.15;;
23898;SDS011;20544;50.018;20.010;2023-04-07T08:52:26;34.35;;;23.30;;
23898;SDS011;20544;50.018;20.010;2023-04-07T08:55:48;33.45;;;23.68;;
23898;SDS011;20544;50.018;20.010;2023-04-07T08:59:07;32.13;;;22.88;;
23898;SDS011;20544;50.018;20.010;2023-04-07T09:02:27;71.73;;;50.95;;
23898;SDS011;20544;50.018;20.010;2023-04-07T09:05:46;112.08;;;65.10;;
23898;SDS011;20544;50.018;20.010;2023-04-07T09:09:05;48.70;;;31.20;;
23898;SDS011;20544;50.018;20.010;2023-04-07T09:12:21;36.18;;;24.83;;
23898;SDS011;20544;50.018;20.010;2023-04-07T09:15:40;32.98;;;21.77;;
23898;SDS011;20544;50.018;20.010;2023-04-07T09:18:56;31.65;;;22.23;;
23898;SDS011;20544;50.018;20.010;2023-04-07T09:25:29;34.43;;;23.15;;
23898;SDS011;20544;50.018;20.010;2023-04-07T09:28:46;30.73;;;21.98;;
23898;SDS011;20544;50.018;20.010;2023-04-07T09:32:06;33.20;;;22.68;;
23898;SDS011;20544;50.018;20.010;2023-04-07T09:35:23;34.28;;;23.18;;
23898;SDS011;20544;50.018;20.010;2023-04-07T09:41:58;34.63;;;24.05;;
23898;SDS011;20544;50.018;20.010;2023-04-07T09:45:24;33.45;;;22.70;;
23898;SDS011;20544;50.018;20.010;2023-04-07T09:48:45;157.90;;;100.45;;
23898;SDS011;20544;50.018;20.010;2023-04-07T09:52:05;61.98;;;39.85;;
23898;SDS011;20544;50.018;20.010;2023-04-07T09:55:22;39.30;;;26.03;;
23898;SDS011;20544;50.018;20.010;2023-04-07T09:58:39;34.15;;;24.60;;
23898;SDS011;20544;50.018;20.010;2023-04-07T10:01:58;32.05;;;23.00;;
23898;SDS011;20544;50.018;20.010;2023-04-07T10:05:15;31.73;;;22.30;;
23898;SDS011;20544;50.018;20.010;2023-04-07T10:11:48;29.63;;;22.85;;
23898;SDS011;20544;50.018;20.010;2023-04-07T10:18:27;30.08;;;21.40;;
23898;SDS011;20544;50.018;20.010;2023-04-07T10:21:45;29.90;;;21.55;;
23898;SDS011;20544;50.018;20.010;2023-04-07T10:26:12;27.05;;;19.85;;
23898;SDS011;20544;50.018;20.010;2023-04-07T10:29:35;30.00;;;22.05;;
23898;SDS011;20544;50.018;20.010;2023-04-07T10:32:56;28.58;;;20.78;;
23898;SDS011;20544;50.018;20.010;2023-04-07T10:36:13;29.45;;;20.00;;
23898;SDS011;20544;50.018;20.010;2023-04-07T10:39:30;27.25;;;19.98;;
23898;SDS011;20544;50.018;20.010;2023-04-07T10:42:47;26.33;;;19.10;;
23898;SDS011;20544;50.018;20.010;2023-04-07T10:46:03;26.65;;;20.18;;
23898;SDS011;20544;50.018;20.010;2023-04-07T10:49:20;28.50;;;20.03;;
23898;SDS011;20544;50.018;20.010;2023-04-07T10:55:54;24.08;;;17.18;;
23898;SDS011;20544;50.018;20.010;2023-04-07T10:59:14;25.35;;;18.63;;
23898;SDS011;20544;50.018;20.010;2023-04-07T11:02:33;23.00;;;17.63;;
23898;SDS011;20544;50.018;20.010;2023-04-07T11:05:52;25.00;;;18.35;;
23898;SDS011;20544;50.018;20.010;2023-04-07T11:09:19;23.60;;;16.88;;
23898;SDS011;20544;50.018;20.010;2023-04-07T11:12:36;21.63;;;17.13;;
23898;SDS011;20544;50.018;20.010;2023-04-07T11:15:52;23.35;;;18.33;;
23898;SDS011;20544;50.018;20.010;2023-04-07T11:19:08;23.08;;;17.40;;
23898;SDS011;20544;50.018;20.010;2023-04-07T11:22:25;26.08;;;18.45;;
23898;SDS011;20544;50.018;20.010;2023-04-07T11:25:43;23.90;;;17.78;;
23898;SDS011;20544;50.018;20.010;2023-04-07T11:29:01;26.50;;;19.40;;
23898;SDS011;20544;50.018;20.010;2023-04-07T11:32:20;24.73;;;18.20;;
23898;SDS011;20544;50.018;20.010;2023-04-07T11:35:37;22.77;;;17.97;;
23898;SDS011;20544;50.018;20.010;2023-04-07T11:39:03;24.88;;;18.90;;
23898;SDS011;20544;50.018;20.010;2023-04-07T11:42:33;23.50;;;18.75;;
23898;SDS011;20544;50.018;20.010;2023-04-07T11:49:21;24.75;;;19.18;;
23898;SDS011;20544;50.018;20.010;2023-04-07T11:52:43;25.78;;;19.78;;
23898;SDS011;20544;50.018;20.010;2023-04-07T11:56:04;24.75;;;18.43;;
23898;SDS011;20544;50.018;20.010;2023-04-07T11:59:24;24.15;;;18.68;;
23898;SDS011;20544;50.018;20.010;2023-04-07T12:02:41;23.50;;;18.63;;
23898;SDS011;20544;50.018;20.010;2023-04-07T12:05:59;22.68;;;17.43;;
23898;SDS011;20544;50.018;20.010;2023-04-07T12:09:25;21.18;;;16.58;;
23898;SDS011;20544;50.018;20.010;2023-04-07T12:16:02;25.23;;;18.83;;
23898;SDS011;20544;50.018;20.010;2023-04-07T12:19:19;27.13;;;20.50;;
23898;SDS011;20544;50.018;20.010;2023-04-07T12:22:36;26.25;;;20.73;;
23898;SDS011;20544;50.018;20.010;2023-04-07T12:25:53;26.88;;;20.40;;
23898;SDS011;20544;50.018;20.010;2023-04-07T12:29:10;26.75;;;19.78;;
23898;SDS011;20544;50.018;20.010;2023-04-07T12:32:27;31.83;;;22.50;;
23898;SDS011;20544;50.018;20.010;2023-04-07T12:35:44;27.58;;;21.05;;
23898;SDS011;20544;50.018;20.010;2023-04-07T12:42:17;28.80;;;21.50;;
23898;SDS011;20544;50.018;20.010;2023-04-07T12:45:33;28.65;;;21.63;;
23898;SDS011;20544;50.018;20.010;2023-04-07T12:48:50;29.75;;;22.80;;
23898;SDS011;20544;50.018;20.010;2023-04-07T12:52:07;32.85;;;20.98;;
23898;SDS011;20544;50.018;20.010;2023-04-07T12:56:28;28.23;;;21.25;;
23898;SDS011;20544;50.018;20.010;2023-04-07T12:59:48;30.85;;;22.38;;
23898;SDS011;20544;50.018;20.010;2023-04-07T13:03:05;30.18;;;21.03;;
23898;SDS011;20544;50.018;20.010;2023-04-07T13:06:22;27.73;;;21.30;;
23898;SDS011;20544;50.018;20.010;2023-04-07T13:09:38;29.25;;;21.60;;
23898;SDS011;20544;50.018;20.010;2023-04-07T13:12:56;29.78;;;22.08;;
23898;SDS011;20544;50.018;20.010;2023-04-07T13:16:12;31.68;;;22.90;;
23898;SDS011;20544;50.018;20.010;2023-04-07T13:19:29;31.50;;;23.88;;
23898;SDS011;20544;50.018;20.010;2023-04-07T13:26:02;31.35;;;23.38;;
23898;SDS011;20544;50.018;20.010;2023-04-07T13:29:18;31.10;;;24.63;;
23898;SDS011;20544;50.018;20.010;2023-04-07T13:32:35;31.25;;;22.98;;
23898;SDS011;20544;50.018;20.010;2023-04-07T13:35:53;34.78;;;24.75;;
23898;SDS011;20544;50.018;20.010;2023-04-07T13:42:26;28.63;;;22.30;;
23898;SDS011;20544;50.018;20.010;2023-04-07T13:45:42;30.30;;;23.23;;
23898;SDS011;20544;50.018;20.010;2023-04-07T13:48:59;34.40;;;25.08;;
23898;SDS011;20544;50.018;20.010;2023-04-07T13:52:16;29.40;;;22.35;;
23898;SDS011;20544;50.018;20.010;2023-04-07T13:57:23;32.88;;;21.95;;
23898;SDS011;20544;50.018;20.010;2023-04-07T14:00:39;32.30;;;22.88;;
23898;SDS011;20544;50.018;20.010;2023-04-07T14:07:15;28.60;;;21.90;;
23898;SDS011;20544;50.018;20.010;2023-04-07T14:12:06;29.25;;;21.45;;
23898;SDS011;20544;50.018;20.010;2023-04-07T14:15:23;27.88;;;20.98;;
23898;SDS011;20544;50.018;20.010;2023-04-07T14:18:40;37.53;;;27.28;;
23898;SDS011;20544;50.018;20.010;2023-04-07T14:21:57;34.25;;;25.68;;
23898;SDS011;20544;50.018;20.010;2023-04-07T14:25:15;29.63;;;22.53;;
23898;SDS011;20544;50.018;20.010;2023-04-07T14:28:32;30.95;;;22.88;;
23898;SDS011;20544;50.018;20.010;2023-04-07T14:31:49;30.75;;;23.38;;
23898;SDS011;20544;50.018;20.010;2023-04-07T14:35:06;28.25;;;22.15;;
23898;SDS011;20544;50.018;20.010;2023-04-07T14:41:39;31.68;;;23.68;;
23898;SDS011;20544;50.018;20.010;2023-04-07T14:44:55;27.60;;;22.03;;
23898;SDS011;20544;50.018;20.010;2023-04-07T14:48:12;27.80;;;22.48;;
23898;SDS011;20544;50.018;20.010;2023-04-07T14:51:29;27.93;;;22.10;;
23898;SDS011;20544;50.018;20.010;2023-04-07T14:54:46;30.25;;;22.10;;
23898;SDS011;20544;50.018;20.010;2023-04-07T14:58:04;31.80;;;23.35;;
23898;SDS011;20544;50.018;20.010;2023-04-07T15:01:21;30.58;;;22.43;;
23898;SDS011;20544;50.018;20.010;2023-04-07T15:04:38;32.03;;;22.35;;
23898;SDS011;20544;50.018;20.010;2023-04-07T15:07:54;30.35;;;23.25;;
23898;SDS011;20544;50.018;20.010;2023-04-07T15:11:11;44.20;;;31.08;;
23898;SDS011;20544;50.018;20.010;2023-04-07T15:14:28;33.93;;;25.28;;
23898;SDS011;20544;50.018;20.010;2023-04-07T15:17:45;30.88;;;23.48;;
23898;SDS011;20544;50.018;20.010;2023-04-07T15:21:01;29.25;;;22.10;;
23898;SDS011;20544;50.018;20.010;2023-04-07T15:27:35;28.83;;;23.02;;
23898;SDS011;20544;50.018;20.010;2023-04-07T15:30:51;26.90;;;21.65;;
23898;SDS011;20544;50.018;20.010;2023-04-07T15:34:09;26.90;;;21.80;;
23898;SDS011;20544;50.018;20.010;2023-04-07T15:37:25;29.25;;;22.93;;
23898;SDS011;20544;50.018;20.010;2023-04-07T15:40:42;26.83;;;20.15;;
23898;SDS011;20544;50.018;20.010;2023-04-07T15:43:59;28.50;;;21.53;;
23898;SDS011;20544;50.018;20.010;2023-04-07T15:47:17;27.40;;;21.85;;
23898;SDS011;20544;50.018;20.010;2023-04-07T15:50:33;26.28;;;21.83;;
23898;SDS011;20544;50.018;20.010;2023-04-07T15:53:50;24.18;;;20.13;;
23898;SDS011;20544;50.018;20.010;2023-04-07T15:57:07;23.15;;;18.98;;
23898;SDS011;20544;50.018;20.010;2023-04-07T16:00:24;24.70;;;20.70;;
23898;SDS011;20544;50.018;20.010;2023-04-07T16:03:42;51.45;;;36.45;;
23898;SDS011;20544;50.018;20.010;2023-04-07T16:06:59;29.15;;;22.18;;
23898;SDS011;20544;50.018;20.010;2023-04-07T16:10:17;25.10;;;20.75;;
23898;SDS011;20544;50.018;20.010;2023-04-07T16:13:37;25.60;;;19.55;;
23898;SDS011;20544;50.018;20.010;2023-04-07T16:16:55;24.63;;;19.33;;
23898;SDS011;20544;50.018;20.010;2023-04-07T16:20:26;23.53;;;18.75;;
23898;SDS011;20544;50.018;20.010;2023-04-07T16:23:43;21.15;;;17.48;;
23898;SDS011;20544;50.018;20.010;2023-04-07T16:26:59;24.90;;;18.60;;
23898;SDS011;20544;50.018;20.010;2023-04-07T16:30:18;24.18;;;18.83;;
23898;SDS011;20544;50.018;20.010;2023-04-07T16:33:35;25.45;;;19.45;;
23898;SDS011;20544;50.018;20.010;2023-04-07T16:36:53;27.45;;;20.35;;
23898;SDS011;20544;50.018;20.010;2023-04-07T16:40:09;25.93;;;20.35;;
23898;SDS011;20544;50.018;20.010;2023-04-07T16:43:26;27.23;;;21.08;;
23898;SDS011;20544;50.018;20.010;2023-04-07T16:46:44;25.30;;;20.30;;
23898;SDS011;20544;50.018;20.010;2023-04-07T16:50:02;26.10;;;19.60;;
23898;SDS011;20544;50.018;20.010;2023-04-07T16:53:21;27.28;;;20.50;;
23898;SDS011;20544;50.018;20.010;2023-04-07T16:56:38;26.88;;;21.50;;
23898;SDS011;20544;50.018;20.010;2023-04-07T16:59:54;26.40;;;20.33;;
23898;SDS011;20544;50.018;20.010;2023-04-07T17:03:13;23.28;;;19.15;;
23898;SDS011;20544;50.018;20.010;2023-04-07T17:06:30;24.78;;;19.80;;
23898;SDS011;20544;50.018;20.010;2023-04-07T17:09:47;24.45;;;20.03;;
23898;SDS011;20544;50.018;20.010;2023-04-07T17:13:03;22.78;;;18.68;;
23898;SDS011;20544;50.018;20.010;2023-04-07T17:16:20;23.83;;;18.90;;
23898;SDS011;20544;50.018;20.010;2023-04-07T17:19:37;25.10;;;19.10;;
23898;SDS011;20544;50.018;20.010;2023-04-07T17:22:54;22.48;;;17.63;;
23898;SDS011;20544;50.018;20.010;2023-04-07T17:28:24;23.23;;;18.43;;
23898;SDS011;20544;50.018;20.010;2023-04-07T17:31:41;25.93;;;19.13;;
23898;SDS011;20544;50.018;20.010;2023-04-07T17:34:58;26.60;;;20.55;;
23898;SDS011;20544;50.018;20.010;2023-04-07T17:38:14;24.98;;;20.93;;
23898;SDS011;20544;50.018;20.010;2023-04-07T17:44:50;30.10;;;23.53;;
23898;SDS011;20544;50.018;20.010;2023-04-07T17:48:07;31.05;;;23.23;;
23898;SDS011;20544;50.018;20.010;2023-04-07T17:51:26;31.25;;;23.98;;
23898;SDS011;20544;50.018;20.010;2023-04-07T17:54:43;34.98;;;25.58;;
23898;SDS011;20544;50.018;20.010;2023-04-07T17:58:00;31.10;;;24.00;;
23898;SDS011;20544;50.018;20.010;2023-04-07T18:01:16;31.35;;;23.63;;
23898;SDS011;20544;50.018;20.010;2023-04-07T18:04:34;30.00;;;24.53;;
23898;SDS011;20544;50.018;20.010;2023-04-07T18:07:52;34.10;;;24.78;;
23898;SDS011;20544;50.018;20.010;2023-04-07T18:14:24;33.13;;;24.08;;
23898;SDS011;20544;50.018;20.010;2023-04-07T18:17:41;32.10;;;24.00;;
23898;SDS011;20544;50.018;20.010;2023-04-07T18:21:04;31.60;;;23.83;;
23898;SDS011;20544;50.018;20.010;2023-04-07T18:24:41;33.15;;;24.60;;
23898;SDS011;20544;50.018;20.010;2023-04-07T18:27:57;33.55;;;23.93;;
23898;SDS011;20544;50.018;20.010;2023-04-07T18:31:14;30.70;;;23.60;;
23898;SDS011;20544;50.018;20.010;2023-04-07T18:34:31;29.00;;;22.15;;
23898;SDS011;20544;50.018;20.010;2023-04-07T18:37:48;28.90;;;22.60;;
23898;SDS011;20544;50.018;20.010;2023-04-07T18:41:06;29.85;;;23.48;;
23898;SDS011;20544;50.018;20.010;2023-04-07T18:44:25;33.60;;;24.28;;
23898;SDS011;20544;50.018;20.010;2023-04-07T18:47:42;32.15;;;23.18;;
23898;SDS011;20544;50.018;20.010;2023-04-07T18:50:59;34.48;;;24.25;;
23898;SDS011;20544;50.018;20.010;2023-04-07T18:54:16;34.83;;;26.05;;
23898;SDS011;20544;50.018;20.010;2023-04-07T18:57:34;33.95;;;26.23;;
23898;SDS011;20544;50.018;20.010;2023-04-07T19:00:52;36.50;;;25.90;;
23898;SDS011;20544;50.018;20.010;2023-04-07T19:04:08;34.18;;;24.95;;
23898;SDS011;20544;50.018;20.010;2023-04-07T19:07:27;36.28;;;27.28;;
23898;SDS011;20544;50.018;20.010;2023-04-07T19:10:44;40.78;;;29.10;;
23898;SDS011;20544;50.018;20.010;2023-04-07T19:14:01;40.23;;;29.28;;
23898;SDS011;20544;50.018;20.010;2023-04-07T19:17:18;43.08;;;30.08;;
23898;SDS011;20544;50.018;20.010;2023-04-07T19:20:35;47.48;;;33.95;;
23898;SDS011;20544;50.018;20.010;2023-04-07T19:27:07;46.50;;;32.45;;
23898;SDS011;20544;50.018;20.010;2023-04-07T19:30:26;45.50;;;34.28;;
23898;SDS011;20544;50.018;20.010;2023-04-07T19:33:43;47.35;;;33.75;;
23898;SDS011;20544;50.018;20.010;2023-04-07T19:37:00;56.33;;;39.73;;
23898;SDS011;20544;50.018;20.010;2023-04-07T19:43:32;61.30;;;41.35;;
23898;SDS011;20544;50.018;20.010;2023-04-07T19:46:49;59.98;;;40.13;;
23898;SDS011;20544;50.018;20.010;2023-04-07T19:50:08;55.25;;;38.25;;
23898;SDS011;20544;50.018;20.010;2023-04-07T19:53:26;53.70;;;37.63;;
23898;SDS011;20544;50.018;20.010;2023-04-07T19:56:42;49.48;;;34.40;;
23898;SDS011;20544;50.018;20.010;2023-04-07T19:59:59;54.23;;;36.50;;
23898;SDS011;20544;50.018;20.010;2023-04-07T20:03:18;52.93;;;36.63;;
23898;SDS011;20544;50.018;20.010;2023-04-07T20:06:35;54.15;;;38.18;;
23898;SDS011;20544;50.018;20.010;2023-04-07T20:09:54;54.18;;;39.03;;
23898;SDS011;20544;50.018;20.010;2023-04-07T20:13:10;61.43;;;39.90;;
23898;SDS011;20544;50.018;20.010;2023-04-07T20:16:27;57.03;;;38.38;;
23898;SDS011;20544;50.018;20.010;2023-04-07T20:19:46;52.73;;;36.83;;
23898;SDS011;20544;50.018;20.010;2023-04-07T20:23:03;56.25;;;39.15;;